sensor_id;sensor_type;location;lat;lon;timestamp;P1;durP1;ratioP1;P2;durP2;ratioP2
6414;SDS011;3240;48.790;9.210;2023-03-13T00:01:24;19.47;;;3.53;;
6414;SDS011;3240;48.790;9.210;2023-03-13T00:03:50;12.40;;;3.43;;
6414;SDS011;3240;48.790;9.210;2023-03-13T00:06:18;13.30;;;4.30;;
6414;SDS011;3240;48.790;9.210;2023-03-13T00:08:46;14.30;;;3.23;;
6414;SDS011;3240;48.790;9.210;2023-03-13T00:11:14;12.63;;;4.17;;
6414;SDS011;3240;48.790;9.210;2023-03-13T00:13:42;11.30;;;4.30;;
6414;SDS011;3240;48.790;9.210;2023-03-13T00:16:12;10.27;;;4.53;;
6414;SDS011;3240;48.790;9.210;2023-03-13T00:18:43;17.90;;;3.63;;
6414;SDS011;3240;48.790;9.210;2023-03-13T00:21:07;9.60;;;3.50;;
6414;SDS011;3240;48.790;9.210;2023-03-13T00:23:36;10.10;;;3.90;;
6414;SDS011;3240;48.790;9.210;2023-03-13T00:26:04;14.33;;;4.30;;
6414;SDS011;3240;48.790;9.210;2023-03-13T00:28:31;13.13;;;3.60;;
6414;SDS011;3240;48.790;9.210;2023-03-13T00:31:00;12.53;;;3.87;;
6414;SDS011;3240;48.790;9.210;2023-03-13T00:33:27;11.83;;;3.63;;
6414;SDS011;3240;48.790;9.210;2023-03-13T00:35:57;11.93;;;4.70;;
6414;SDS011;3240;48.790;9.210;2023-03-13T00:38:24;17.70;;;4.33;;
6414;SDS011;3240;48.790;9.210;2023-03-13T00:40:58;13.13;;;4.57;;
6414;SDS011;3240;48.790;9.210;2023-03-13T00:43:25;16.73;;;4.13;;
6414;SDS011;3240;48.790;9.210;2023-03-13T00:45:54;9.83;;;3.80;;
6414;SDS011;3240;48.790;9.210;2023-03-13T00:48:22;19.80;;;4.47;;
6414;SDS011;3240;48.790;9.210;2023-03-13T00:50:49;16.73;;;4.47;;
6414;SDS011;3240;48.790;9.210;2023-03-13T00:53:17;13.13;;;4.60;;
6414;SDS011;3240;48.790;9.210;2023-03-13T00:55:51;13.17;;;4.57;;
6414;SDS011;3240;48.790;9.210;2023-03-13T00:58:18;14.45;;;4.43;;
6414;SDS011;3240;48.790;9.210;2023-03-13T01:00:46;12.57;;;4.63;;
6414;SDS011;3240;48.790;9.210;2023-03-13T01:03:14;13.73;;;4.93;;
6414;SDS011;3240;48.790;9.210;2023-03-13T01:05:43;13.90;;;4.60;;
6414;SDS011;3240;48.790;9.210;2023-03-13T01:08:10;11.40;;;4.20;;
6414;SDS011;3240;48.790;9.210;2023-03-13T01:10:38;15.03;;;3.67;;
6414;SDS011;3240;48.790;9.210;2023-03-13T01:13:07;14.90;;;3.83;;
6414;SDS011;3240;48.790;9.210;2023-03-13T01:15:35;14.87;;;3.83;;
6414;SDS011;3240;48.790;9.210;2023-03-13T01:18:03;13.60;;;4.20;;
6414;SDS011;3240;48.790;9.210;2023-03-13T01:20:31;10.67;;;3.30;;
6414;SDS011;3240;48.790;9.210;2023-03-13T01:22:59;14.70;;;3.50;;
6414;SDS011;3240;48.790;9.210;2023-03-13T01:25:27;13.03;;;3.10;;
6414;SDS011;3240;48.790;9.210;2023-03-13T01:27:55;6.00;;;2.50;;
6414;SDS011;3240;48.790;9.210;2023-03-13T01:30:23;7.00;;;3.00;;
6414;SDS011;3240;48.790;9.210;2023-03-13T01:32:51;13.43;;;3.50;;
6414;SDS011;3240;48.790;9.210;2023-03-13T01:35:19;14.30;;;3.37;;
6414;SDS011;3240;48.790;9.210;2023-03-13T01:37:47;12.00;;;2.40;;
6414;SDS011;3240;48.790;9.210;2023-03-13T01:40:15;9.10;;;2.97;;
6414;SDS011;3240;48.790;9.210;2023-03-13T01:42:52;17.87;;;3.80;;
6414;SDS011;3240;48.790;9.210;2023-03-13T01:47:54;9.27;;;2.90;;
6414;SDS011;3240;48.790;9.210;2023-03-13T01:50:22;9.17;;;2.67;;
6414;SDS011;3240;48.790;9.210;2023-03-13T01:52:50;11.03;;;2.60;;
6414;SDS011;3240;48.790;9.210;2023-03-13T01:55:18;9.77;;;2.60;;
6414;SDS011;3240;48.790;9.210;2023-03-13T01:57:47;11.20;;;3.07;;
6414;SDS011;3240;48.790;9.210;2023-03-13T02:00:15;6.17;;;2.70;;
6414;SDS011;3240;48.790;9.210;2023-03-13T02:02:46;9.87;;;2.87;;
6414;SDS011;3240;48.790;9.210;2023-03-13T02:05:13;12.50;;;3.60;;
6414;SDS011;3240;48.790;9.210;2023-03-13T02:07:42;8.80;;;3.00;;
6414;SDS011;3240;48.790;9.210;2023-03-13T02:10:09;8.03;;;2.43;;
6414;SDS011;3240;48.790;9.210;2023-03-13T02:12:37;8.80;;;3.33;;
6414;SDS011;3240;48.790;9.210;2023-03-13T02:15:11;9.67;;;3.53;;
6414;SDS011;3240;48.790;9.210;2023-03-13T02:17:37;10.63;;;2.70;;
6414;SDS011;3240;48.790;9.210;2023-03-13T02:20:05;11.03;;;3.23;;
6414;SDS011;3240;48.790;9.210;2023-03-13T02:22:39;8.70;;;3.70;;
6414;SDS011;3240;48.790;9.210;2023-03-13T02:25:08;7.23;;;2.50;;
6414;SDS011;3240;48.790;9.210;2023-03-13T02:27:33;10.27;;;2.63;;
6414;SDS011;3240;48.790;9.210;2023-03-13T02:30:02;12.60;;;2.60;;
6414;SDS011;3240;48.790;9.210;2023-03-13T02:32:29;8.20;;;2.90;;
6414;SDS011;3240;48.790;9.210;2023-03-13T02:35:00;10.20;;;3.50;;
6414;SDS011;3240;48.790;9.210;2023-03-13T02:37:25;11.90;;;2.40;;
6414;SDS011;3240;48.790;9.210;2023-03-13T02:39:53;10.53;;;2.77;;
6414;SDS011;3240;48.790;9.210;2023-03-13T02:42:21;7.23;;;3.27;;
6414;SDS011;3240;48.790;9.210;2023-03-13T02:44:50;12.40;;;3.10;;
6414;SDS011;3240;48.790;9.210;2023-03-13T02:47:19;8.07;;;3.73;;
6414;SDS011;3240;48.790;9.210;2023-03-13T02:49:47;12.17;;;2.43;;
6414;SDS011;3240;48.790;9.210;2023-03-13T02:52:30;7.90;;;2.50;;
6414;SDS011;3240;48.790;9.210;2023-03-13T02:54:58;9.07;;;2.33;;
6414;SDS011;3240;48.790;9.210;2023-03-13T02:57:25;6.53;;;2.47;;
6414;SDS011;3240;48.790;9.210;2023-03-13T02:59:53;9.60;;;2.63;;
6414;SDS011;3240;48.790;9.210;2023-03-13T03:02:21;10.30;;;2.30;;
6414;SDS011;3240;48.790;9.210;2023-03-13T03:04:50;4.80;;;2.00;;
6414;SDS011;3240;48.790;9.210;2023-03-13T03:07:18;3.57;;;1.40;;
6414;SDS011;3240;48.790;9.210;2023-03-13T03:09:46;6.73;;;1.83;;
6414;SDS011;3240;48.790;9.210;2023-03-13T03:12:14;6.07;;;1.30;;
6414;SDS011;3240;48.790;9.210;2023-03-13T03:14:42;4.50;;;1.17;;
6414;SDS011;3240;48.790;9.210;2023-03-13T03:17:10;11.87;;;1.73;;
6414;SDS011;3240;48.790;9.210;2023-03-13T03:19:38;3.73;;;1.33;;
6414;SDS011;3240;48.790;9.210;2023-03-13T03:22:06;5.43;;;1.80;;
6414;SDS011;3240;48.790;9.210;2023-03-13T03:24:34;3.53;;;1.47;;
6414;SDS011;3240;48.790;9.210;2023-03-13T03:27:02;7.10;;;1.50;;
6414;SDS011;3240;48.790;9.210;2023-03-13T03:29:30;6.20;;;1.57;;
6414;SDS011;3240;48.790;9.210;2023-03-13T03:31:58;8.00;;;1.80;;
6414;SDS011;3240;48.790;9.210;2023-03-13T03:34:26;5.47;;;1.93;;
6414;SDS011;3240;48.790;9.210;2023-03-13T03:36:54;8.23;;;1.67;;
6414;SDS011;3240;48.790;9.210;2023-03-13T03:39:22;3.93;;;1.60;;
6414;SDS011;3240;48.790;9.210;2023-03-13T03:41:50;7.10;;;1.63;;
6414;SDS011;3240;48.790;9.210;2023-03-13T03:44:18;5.83;;;1.80;;
6414;SDS011;3240;48.790;9.210;2023-03-13T03:46:46;4.50;;;1.63;;
6414;SDS011;3240;48.790;9.210;2023-03-13T03:49:14;7.67;;;2.03;;
6414;SDS011;3240;48.790;9.210;2023-03-13T03:51:42;7.47;;;1.87;;
6414;SDS011;3240;48.790;9.210;2023-03-13T03:54:10;8.97;;;2.23;;
6414;SDS011;3240;48.790;9.210;2023-03-13T03:56:38;8.80;;;2.67;;
6414;SDS011;3240;48.790;9.210;2023-03-13T03:59:06;7.33;;;2.80;;
6414;SDS011;3240;48.790;9.210;2023-03-13T04:01:34;12.50;;;2.13;;
6414;SDS011;3240;48.790;9.210;2023-03-13T04:04:02;7.23;;;2.40;;
6414;SDS011;3240;48.790;9.210;2023-03-13T04:06:30;4.83;;;1.10;;
6414;SDS011;3240;48.790;9.210;2023-03-13T04:08:58;2.83;;;1.07;;
6414;SDS011;3240;48.790;9.210;2023-03-13T04:11:26;3.53;;;1.10;;
6414;SDS011;3240;48.790;9.210;2023-03-13T04:13:54;9.63;;;1.00;;
6414;SDS011;3240;48.790;9.210;2023-03-13T04:16:22;3.27;;;1.03;;
6414;SDS011;3240;48.790;9.210;2023-03-13T04:18:50;4.73;;;1.00;;
6414;SDS011;3240;48.790;9.210;2023-03-13T04:21:18;4.63;;;0.80;;
6414;SDS011;3240;48.790;9.210;2023-03-13T04:23:46;1.77;;;0.77;;
6414;SDS011;3240;48.790;9.210;2023-03-13T04:26:15;0.80;;;0.70;;
6414;SDS011;3240;48.790;9.210;2023-03-13T04:28:43;4.10;;;0.80;;
6414;SDS011;3240;48.790;9.210;2023-03-13T04:31:11;3.87;;;1.00;;
6414;SDS011;3240;48.790;9.210;2023-03-13T04:33:39;3.50;;;0.73;;
6414;SDS011;3240;48.790;9.210;2023-03-13T04:36:07;1.57;;;0.57;;
6414;SDS011;3240;48.790;9.210;2023-03-13T04:38:35;0.93;;;0.50;;
6414;SDS011;3240;48.790;9.210;2023-03-13T04:41:03;1.40;;;0.53;;
6414;SDS011;3240;48.790;9.210;2023-03-13T04:43:31;1.67;;;0.60;;
6414;SDS011;3240;48.790;9.210;2023-03-13T04:45:59;1.23;;;0.67;;
6414;SDS011;3240;48.790;9.210;2023-03-13T04:48:27;1.67;;;0.60;;
6414;SDS011;3240;48.790;9.210;2023-03-13T04:50:55;2.40;;;0.80;;
6414;SDS011;3240;48.790;9.210;2023-03-13T04:53:23;1.27;;;0.70;;
6414;SDS011;3240;48.790;9.210;2023-03-13T04:55:51;1.93;;;0.60;;
6414;SDS011;3240;48.790;9.210;2023-03-13T04:58:19;1.80;;;0.77;;
6414;SDS011;3240;48.790;9.210;2023-03-13T05:00:47;1.07;;;0.60;;
6414;SDS011;3240;48.790;9.210;2023-03-13T05:03:15;0.87;;;0.70;;
6414;SDS011;3240;48.790;9.210;2023-03-13T05:05:43;1.97;;;0.90;;
6414;SDS011;3240;48.790;9.210;2023-03-13T05:08:11;1.03;;;0.63;;
6414;SDS011;3240;48.790;9.210;2023-03-13T05:10:41;1.03;;;0.60;;
6414;SDS011;3240;48.790;9.210;2023-03-13T05:13:08;3.90;;;0.87;;
6414;SDS011;3240;48.790;9.210;2023-03-13T05:15:36;1.13;;;0.50;;
6414;SDS011;3240;48.790;9.210;2023-03-13T05:18:04;2.90;;;0.70;;
6414;SDS011;3240;48.790;9.210;2023-03-13T05:20:32;2.53;;;0.90;;
6414;SDS011;3240;48.790;9.210;2023-03-13T05:23:00;2.30;;;0.63;;
6414;SDS011;3240;48.790;9.210;2023-03-13T05:25:28;2.80;;;0.90;;
6414;SDS011;3240;48.790;9.210;2023-03-13T05:27:56;1.50;;;0.80;;
6414;SDS011;3240;48.790;9.210;2023-03-13T05:30:24;3.43;;;0.80;;
6414;SDS011;3240;48.790;9.210;2023-03-13T05:32:52;1.30;;;0.60;;
6414;SDS011;3240;48.790;9.210;2023-03-13T05:35:20;0.73;;;0.60;;
6414;SDS011;3240;48.790;9.210;2023-03-13T05:37:48;2.97;;;0.60;;
6414;SDS011;3240;48.790;9.210;2023-03-13T05:40:16;0.97;;;0.53;;
6414;SDS011;3240;48.790;9.210;2023-03-13T05:42:44;2.40;;;0.80;;
6414;SDS011;3240;48.790;9.210;2023-03-13T05:45:12;1.10;;;0.50;;
6414;SDS011;3240;48.790;9.210;2023-03-13T05:47:40;1.03;;;0.60;;
6414;SDS011;3240;48.790;9.210;2023-03-13T05:50:09;1.73;;;0.70;;
6414;SDS011;3240;48.790;9.210;2023-03-13T05:52:37;2.40;;;1.00;;
6414;SDS011;3240;48.790;9.210;2023-03-13T05:55:05;1.50;;;1.07;;
6414;SDS011;3240;48.790;9.210;2023-03-13T05:57:33;0.80;;;0.50;;
6414;SDS011;3240;48.790;9.210;2023-03-13T06:00:02;1.23;;;0.80;;
6414;SDS011;3240;48.790;9.210;2023-03-13T06:02:29;1.27;;;0.50;;
6414;SDS011;3240;48.790;9.210;2023-03-13T06:04:57;1.03;;;0.50;;
6414;SDS011;3240;48.790;9.210;2023-03-13T06:07:25;0.63;;;0.57;;
6414;SDS011;3240;48.790;9.210;2023-03-13T06:09:53;1.27;;;0.67;;
6414;SDS011;3240;48.790;9.210;2023-03-13T06:12:21;1.67;;;0.70;;
6414;SDS011;3240;48.790;9.210;2023-03-13T06:14:49;1.67;;;0.50;;
6414;SDS011;3240;48.790;9.210;2023-03-13T06:17:17;1.30;;;0.60;;
6414;SDS011;3240;48.790;9.210;2023-03-13T06:19:46;1.07;;;0.40;;
6414;SDS011;3240;48.790;9.210;2023-03-13T06:22:14;1.37;;;0.73;;
6414;SDS011;3240;48.790;9.210;2023-03-13T06:24:41;0.80;;;0.50;;
6414;SDS011;3240;48.790;9.210;2023-03-13T06:27:09;1.53;;;0.73;;
6414;SDS011;3240;48.790;9.210;2023-03-13T06:29:37;1.60;;;0.73;;
6414;SDS011;3240;48.790;9.210;2023-03-13T06:32:06;1.57;;;0.90;;
6414;SDS011;3240;48.790;9.210;2023-03-13T06:34:34;0.70;;;0.40;;
6414;SDS011;3240;48.790;9.210;2023-03-13T06:37:02;1.90;;;0.60;;
6414;SDS011;3240;48.790;9.210;2023-03-13T06:39:30;1.13;;;0.50;;
6414;SDS011;3240;48.790;9.210;2023-03-13T06:41:58;0.70;;;0.53;;
6414;SDS011;3240;48.790;9.210;2023-03-13T06:44:26;3.23;;;0.60;;
6414;SDS011;3240;48.790;9.210;2023-03-13T06:46:54;1.47;;;0.57;;
6414;SDS011;3240;48.790;9.210;2023-03-13T06:49:22;0.87;;;0.67;;
6414;SDS011;3240;48.790;9.210;2023-03-13T06:51:50;1.50;;;0.50;;
6414;SDS011;3240;48.790;9.210;2023-03-13T06:54:18;1.17;;;0.60;;
6414;SDS011;3240;48.790;9.210;2023-03-13T06:56:46;0.50;;;0.50;;
6414;SDS011;3240;48.790;9.210;2023-03-13T06:59:14;1.17;;;0.40;;
6414;SDS011;3240;48.790;9.210;2023-03-13T07:01:42;0.83;;;0.70;;
6414;SDS011;3240;48.790;9.210;2023-03-13T07:04:11;1.10;;;0.50;;
6414;SDS011;3240;48.790;9.210;2023-03-13T07:06:39;1.37;;;0.60;;
6414;SDS011;3240;48.790;9.210;2023-03-13T07:09:07;1.90;;;0.40;;
6414;SDS011;3240;48.790;9.210;2023-03-13T07:11:35;0.83;;;0.57;;
6414;SDS011;3240;48.790;9.210;2023-03-13T07:14:03;1.37;;;0.73;;
6414;SDS011;3240;48.790;9.210;2023-03-13T07:16:31;1.43;;;0.67;;
6414;SDS011;3240;48.790;9.210;2023-03-13T07:18:59;1.00;;;0.40;;
6414;SDS011;3240;48.790;9.210;2023-03-13T07:21:27;1.00;;;0.70;;
6414;SDS011;3240;48.790;9.210;2023-03-13T07:23:55;1.13;;;0.70;;
6414;SDS011;3240;48.790;9.210;2023-03-13T07:26:23;1.07;;;0.70;;
6414;SDS011;3240;48.790;9.210;2023-03-13T07:28:51;1.00;;;0.70;;
6414;SDS011;3240;48.790;9.210;2023-03-13T07:31:19;2.00;;;0.60;;
6414;SDS011;3240;48.790;9.210;2023-03-13T07:33:47;0.77;;;0.60;;
6414;SDS011;3240;48.790;9.210;2023-03-13T07:36:15;1.20;;;0.40;;
6414;SDS011;3240;48.790;9.210;2023-03-13T07:38:46;1.33;;;0.63;;
6414;SDS011;3240;48.790;9.210;2023-03-13T07:41:11;1.20;;;0.70;;
6414;SDS011;3240;48.790;9.210;2023-03-13T07:43:39;1.80;;;0.70;;
6414;SDS011;3240;48.790;9.210;2023-03-13T07:46:09;0.70;;;0.60;;
6414;SDS011;3240;48.790;9.210;2023-03-13T07:48:37;2.50;;;0.70;;
6414;SDS011;3240;48.790;9.210;2023-03-13T07:51:04;0.70;;;0.50;;
6414;SDS011;3240;48.790;9.210;2023-03-13T07:53:32;1.07;;;0.50;;
6414;SDS011;3240;48.790;9.210;2023-03-13T07:56:01;1.70;;;0.60;;
6414;SDS011;3240;48.790;9.210;2023-03-13T07:58:28;1.13;;;0.60;;
6414;SDS011;3240;48.790;9.210;2023-03-13T08:00:56;4.33;;;0.70;;
6414;SDS011;3240;48.790;9.210;2023-03-13T08:03:24;1.60;;;0.80;;
6414;SDS011;3240;48.790;9.210;2023-03-13T08:05:58;1.00;;;0.70;;
6414;SDS011;3240;48.790;9.210;2023-03-13T08:08:25;4.37;;;0.70;;
6414;SDS011;3240;48.790;9.210;2023-03-13T08:10:53;1.40;;;0.80;;
6414;SDS011;3240;48.790;9.210;2023-03-13T08:13:21;1.40;;;0.80;;
6414;SDS011;3240;48.790;9.210;2023-03-13T08:15:49;0.80;;;0.67;;
6414;SDS011;3240;48.790;9.210;2023-03-13T08:18:17;0.90;;;0.60;;
6414;SDS011;3240;48.790;9.210;2023-03-13T08:20:45;1.53;;;0.70;;
6414;SDS011;3240;48.790;9.210;2023-03-13T08:23:13;0.60;;;0.50;;
6414;SDS011;3240;48.790;9.210;2023-03-13T08:25:41;2.80;;;0.50;;
6414;SDS011;3240;48.790;9.210;2023-03-13T08:28:09;2.53;;;0.70;;
6414;SDS011;3240;48.790;9.210;2023-03-13T08:30:37;2.67;;;0.80;;
6414;SDS011;3240;48.790;9.210;2023-03-13T08:33:05;1.10;;;0.70;;
6414;SDS011;3240;48.790;9.210;2023-03-13T08:35:33;2.20;;;0.70;;
6414;SDS011;3240;48.790;9.210;2023-03-13T08:38:01;2.97;;;1.57;;
6414;SDS011;3240;48.790;9.210;2023-03-13T08:40:29;0.80;;;0.60;;
6414;SDS011;3240;48.790;9.210;2023-03-13T08:42:57;1.90;;;0.80;;
6414;SDS011;3240;48.790;9.210;2023-03-13T08:45:25;1.50;;;0.80;;
6414;SDS011;3240;48.790;9.210;2023-03-13T08:47:53;1.00;;;0.70;;
6414;SDS011;3240;48.790;9.210;2023-03-13T08:50:21;1.13;;;0.77;;
6414;SDS011;3240;48.790;9.210;2023-03-13T08:52:49;0.97;;;0.70;;
6414;SDS011;3240;48.790;9.210;2023-03-13T08:55:17;1.65;;;0.90;;
6414;SDS011;3240;48.790;9.210;2023-03-13T08:57:45;1.17;;;0.70;;
6414;SDS011;3240;48.790;9.210;2023-03-13T09:00:14;2.40;;;0.80;;
6414;SDS011;3240;48.790;9.210;2023-03-13T09:02:42;2.27;;;0.80;;
6414;SDS011;3240;48.790;9.210;2023-03-13T09:05:10;1.53;;;0.80;;
6414;SDS011;3240;48.790;9.210;2023-03-13T09:07:38;1.70;;;0.90;;
6414;SDS011;3240;48.790;9.210;2023-03-13T09:10:06;2.93;;;0.83;;
6414;SDS011;3240;48.790;9.210;2023-03-13T09:12:34;2.83;;;0.80;;
6414;SDS011;3240;48.790;9.210;2023-03-13T09:15:02;0.70;;;0.60;;
6414;SDS011;3240;48.790;9.210;2023-03-13T09:17:31;1.73;;;1.07;;
6414;SDS011;3240;48.790;9.210;2023-03-13T09:19:59;1.53;;;1.10;;
6414;SDS011;3240;48.790;9.210;2023-03-13T09:22:28;0.90;;;0.83;;
6414;SDS011;3240;48.790;9.210;2023-03-13T09:24:56;4.03;;;1.30;;
6414;SDS011;3240;48.790;9.210;2023-03-13T09:27:24;1.60;;;1.10;;
6414;SDS011;3240;48.790;9.210;2023-03-13T09:29:52;1.77;;;0.80;;
6414;SDS011;3240;48.790;9.210;2023-03-13T09:32:20;1.57;;;0.80;;
6414;SDS011;3240;48.790;9.210;2023-03-13T09:34:48;3.50;;;0.90;;
6414;SDS011;3240;48.790;9.210;2023-03-13T09:37:16;2.13;;;1.13;;
6414;SDS011;3240;48.790;9.210;2023-03-13T09:39:44;3.37;;;0.90;;
6414;SDS011;3240;48.790;9.210;2023-03-13T09:42:15;4.27;;;1.47;;
6414;SDS011;3240;48.790;9.210;2023-03-13T09:45:00;3.63;;;1.07;;
6414;SDS011;3240;48.790;9.210;2023-03-13T09:47:29;3.30;;;0.90;;
6414;SDS011;3240;48.790;9.210;2023-03-13T09:49:58;5.50;;;1.17;;
6414;SDS011;3240;48.790;9.210;2023-03-13T09:52:26;2.00;;;0.90;;
6414;SDS011;3240;48.790;9.210;2023-03-13T09:54:58;2.20;;;1.10;;
6414;SDS011;3240;48.790;9.210;2023-03-13T09:57:33;1.87;;;1.00;;
6414;SDS011;3240;48.790;9.210;2023-03-13T10:00:04;2.73;;;1.03;;
6414;SDS011;3240;48.790;9.210;2023-03-13T10:02:31;2.33;;;0.90;;
6414;SDS011;3240;48.790;9.210;2023-03-13T10:05:05;2.43;;;0.93;;
6414;SDS011;3240;48.790;9.210;2023-03-13T10:07:32;2.33;;;0.83;;
6414;SDS011;3240;48.790;9.210;2023-03-13T10:10:00;3.10;;;1.40;;
6414;SDS011;3240;48.790;9.210;2023-03-13T10:12:30;2.07;;;0.90;;
6414;SDS011;3240;48.790;9.210;2023-03-13T10:15:05;2.97;;;1.00;;
6414;SDS011;3240;48.790;9.210;2023-03-13T10:17:32;1.73;;;0.90;;
6414;SDS011;3240;48.790;9.210;2023-03-13T10:20:02;2.40;;;1.10;;
6414;SDS011;3240;48.790;9.210;2023-03-13T10:22:28;2.40;;;1.10;;
6414;SDS011;3240;48.790;9.210;2023-03-13T10:24:58;3.03;;;1.40;;
6414;SDS011;3240;48.790;9.210;2023-03-13T10:27:25;3.80;;;1.00;;
6414;SDS011;3240;48.790;9.210;2023-03-13T10:29:54;2.60;;;1.00;;
6414;SDS011;3240;48.790;9.210;2023-03-13T10:32:22;1.43;;;1.03;;
6414;SDS011;3240;48.790;9.210;2023-03-13T10:34:51;2.40;;;1.10;;
6414;SDS011;3240;48.790;9.210;2023-03-13T10:37:20;1.43;;;1.13;;
6414;SDS011;3240;48.790;9.210;2023-03-13T10:39:47;3.93;;;1.30;;
6414;SDS011;3240;48.790;9.210;2023-03-13T10:42:22;2.40;;;1.20;;
6414;SDS011;3240;48.790;9.210;2023-03-13T10:44:48;2.40;;;1.30;;
6414;SDS011;3240;48.790;9.210;2023-03-13T10:47:17;2.87;;;1.33;;
6414;SDS011;3240;48.790;9.210;2023-03-13T10:49:47;2.70;;;1.23;;
6414;SDS011;3240;48.790;9.210;2023-03-13T10:54:49;3.37;;;1.57;;
6414;SDS011;3240;48.790;9.210;2023-03-13T10:57:26;2.60;;;1.30;;
6414;SDS011;3240;48.790;9.210;2023-03-13T10:59:48;3.50;;;1.13;;
6414;SDS011;3240;48.790;9.210;2023-03-13T11:02:19;3.87;;;1.10;;
6414;SDS011;3240;48.790;9.210;2023-03-13T11:04:46;2.10;;;1.30;;
6414;SDS011;3240;48.790;9.210;2023-03-13T11:07:15;1.40;;;1.17;;
6414;SDS011;3240;48.790;9.210;2023-03-13T11:09:48;6.13;;;1.40;;
6414;SDS011;3240;48.790;9.210;2023-03-13T11:12:13;2.30;;;1.27;;
6414;SDS011;3240;48.790;9.210;2023-03-13T11:14:40;2.90;;;1.43;;
6414;SDS011;3240;48.790;9.210;2023-03-13T11:17:22;2.73;;;1.23;;
6414;SDS011;3240;48.790;9.210;2023-03-13T11:19:52;5.47;;;1.40;;
6414;SDS011;3240;48.790;9.210;2023-03-13T11:22:24;3.13;;;1.30;;
6414;SDS011;3240;48.790;9.210;2023-03-13T11:24:55;1.73;;;1.03;;
6414;SDS011;3240;48.790;9.210;2023-03-13T11:27:59;1.43;;;1.33;;
6414;SDS011;3240;48.790;9.210;2023-03-13T11:32:45;2.83;;;1.30;;
6414;SDS011;3240;48.790;9.210;2023-03-13T11:35:20;1.73;;;1.23;;
6414;SDS011;3240;48.790;9.210;2023-03-13T11:37:49;3.63;;;1.47;;
6414;SDS011;3240;48.790;9.210;2023-03-13T11:40:20;2.13;;;1.23;;
6414;SDS011;3240;48.790;9.210;2023-03-13T11:42:54;4.30;;;1.27;;
6414;SDS011;3240;48.790;9.210;2023-03-13T11:47:55;3.47;;;1.20;;
6414;SDS011;3240;48.790;9.210;2023-03-13T11:50:29;1.97;;;1.07;;
6414;SDS011;3240;48.790;9.210;2023-03-13T11:52:58;3.80;;;1.17;;
6414;SDS011;3240;48.790;9.210;2023-03-13T11:55:28;1.50;;;1.17;;
6414;SDS011;3240;48.790;9.210;2023-03-13T12:00:39;7.33;;;1.90;;
6414;SDS011;3240;48.790;9.210;2023-03-13T12:03:17;1.33;;;1.23;;
6414;SDS011;3240;48.790;9.210;2023-03-13T12:05:48;2.40;;;1.20;;
6414;SDS011;3240;48.790;9.210;2023-03-13T12:08:15;5.60;;;1.30;;
6414;SDS011;3240;48.790;9.210;2023-03-13T12:10:45;4.27;;;1.30;;
6414;SDS011;3240;48.790;9.210;2023-03-13T12:13:15;3.40;;;1.30;;
6414;SDS011;3240;48.790;9.210;2023-03-13T12:15:42;3.03;;;1.43;;
6414;SDS011;3240;48.790;9.210;2023-03-13T12:18:16;0.93;;;0.80;;
6414;SDS011;3240;48.790;9.210;2023-03-13T12:20:43;2.30;;;1.10;;
6414;SDS011;3240;48.790;9.210;2023-03-13T12:23:18;3.43;;;1.30;;
6414;SDS011;3240;48.790;9.210;2023-03-13T12:25:49;2.50;;;1.47;;
6414;SDS011;3240;48.790;9.210;2023-03-13T12:28:19;6.03;;;1.37;;
6414;SDS011;3240;48.790;9.210;2023-03-13T12:30:47;0.97;;;0.80;;
6414;SDS011;3240;48.790;9.210;2023-03-13T12:33:18;7.73;;;1.10;;
6414;SDS011;3240;48.790;9.210;2023-03-13T12:35:46;1.20;;;1.00;;
6414;SDS011;3240;48.790;9.210;2023-03-13T12:40:48;1.37;;;1.03;;
6414;SDS011;3240;48.790;9.210;2023-03-13T12:43:17;4.03;;;1.00;;
6414;SDS011;3240;48.790;9.210;2023-03-13T12:48:39;1.00;;;0.90;;
6414;SDS011;3240;48.790;9.210;2023-03-13T12:51:14;4.00;;;1.20;;
6414;SDS011;3240;48.790;9.210;2023-03-13T12:53:44;2.37;;;1.10;;
6414;SDS011;3240;48.790;9.210;2023-03-13T12:56:29;1.67;;;0.83;;
6414;SDS011;3240;48.790;9.210;2023-03-13T12:58:54;3.97;;;1.20;;
6414;SDS011;3240;48.790;9.210;2023-03-13T13:01:28;4.23;;;0.90;;
6414;SDS011;3240;48.790;9.210;2023-03-13T13:03:57;2.03;;;1.17;;
6414;SDS011;3240;48.790;9.210;2023-03-13T13:06:24;2.60;;;0.93;;
6414;SDS011;3240;48.790;9.210;2023-03-13T13:11:33;4.00;;;1.20;;
6414;SDS011;3240;48.790;9.210;2023-03-13T13:15:13;4.80;;;1.00;;
6414;SDS011;3240;48.790;9.210;2023-03-13T13:16:49;4.85;;;1.05;;
6414;SDS011;3240;48.790;9.210;2023-03-13T13:24:40;1.20;;;0.83;;
6414;SDS011;3240;48.790;9.210;2023-03-13T13:29:51;1.27;;;0.90;;
6414;SDS011;3240;48.790;9.210;2023-03-13T13:32:27;3.70;;;1.20;;
6414;SDS011;3240;48.790;9.210;2023-03-13T13:35:02;5.53;;;1.27;;
6414;SDS011;3240;48.790;9.210;2023-03-13T13:37:29;1.00;;;0.70;;
6414;SDS011;3240;48.790;9.210;2023-03-13T13:40:30;1.00;;;0.90;;
6414;SDS011;3240;48.790;9.210;2023-03-13T13:42:47;2.00;;;0.83;;
6414;SDS011;3240;48.790;9.210;2023-03-13T13:50:32;1.97;;;0.90;;
6414;SDS011;3240;48.790;9.210;2023-03-13T13:55:41;1.87;;;0.70;;
6414;SDS011;3240;48.790;9.210;2023-03-13T13:58:10;3.23;;;1.17;;
6414;SDS011;3240;48.790;9.210;2023-03-13T14:00:39;1.30;;;0.90;;
6414;SDS011;3240;48.790;9.210;2023-03-13T14:03:15;5.07;;;0.93;;
6414;SDS011;3240;48.790;9.210;2023-03-13T14:05:38;3.37;;;0.90;;
6414;SDS011;3240;48.790;9.210;2023-03-13T14:08:07;1.40;;;0.87;;
6414;SDS011;3240;48.790;9.210;2023-03-13T14:10:37;3.07;;;1.33;;
6414;SDS011;3240;48.790;9.210;2023-03-13T14:13:16;4.00;;;0.80;;
6414;SDS011;3240;48.790;9.210;2023-03-13T14:15:46;2.83;;;0.83;;
6414;SDS011;3240;48.790;9.210;2023-03-13T14:18:15;2.00;;;1.00;;
6414;SDS011;3240;48.790;9.210;2023-03-13T14:21:02;1.77;;;0.70;;
6414;SDS011;3240;48.790;9.210;2023-03-13T14:23:33;3.60;;;1.30;;
6414;SDS011;3240;48.790;9.210;2023-03-13T14:26:07;1.83;;;0.80;;
6414;SDS011;3240;48.790;9.210;2023-03-13T14:28:27;1.30;;;1.10;;
6414;SDS011;3240;48.790;9.210;2023-03-13T14:30:56;5.17;;;0.87;;
6414;SDS011;3240;48.790;9.210;2023-03-13T14:33:24;3.03;;;1.20;;
6414;SDS011;3240;48.790;9.210;2023-03-13T14:35:52;4.80;;;0.73;;
6414;SDS011;3240;48.790;9.210;2023-03-13T14:38:22;1.80;;;1.00;;
6414;SDS011;3240;48.790;9.210;2023-03-13T14:40:49;2.87;;;0.83;;
6414;SDS011;3240;48.790;9.210;2023-03-13T14:43:25;1.50;;;0.80;;
6414;SDS011;3240;48.790;9.210;2023-03-13T14:45:51;1.47;;;0.70;;
6414;SDS011;3240;48.790;9.210;2023-03-13T14:48:23;2.58;;;1.00;;
6414;SDS011;3240;48.790;9.210;2023-03-13T14:50:52;3.17;;;1.40;;
6414;SDS011;3240;48.790;9.210;2023-03-13T14:53:20;4.83;;;1.03;;
6414;SDS011;3240;48.790;9.210;2023-03-13T14:55:47;2.47;;;1.30;;
6414;SDS011;3240;48.790;9.210;2023-03-13T15:01:10;1.97;;;1.03;;
6414;SDS011;3240;48.790;9.210;2023-03-13T15:03:29;4.63;;;1.20;;
6414;SDS011;3240;48.790;9.210;2023-03-13T15:06:05;7.83;;;0.90;;
6414;SDS011;3240;48.790;9.210;2023-03-13T15:08:33;4.30;;;1.13;;
6414;SDS011;3240;48.790;9.210;2023-03-13T15:11:00;3.70;;;1.10;;
6414;SDS011;3240;48.790;9.210;2023-03-13T15:13:33;2.40;;;0.90;;
6414;SDS011;3240;48.790;9.210;2023-03-13T15:16:00;5.03;;;0.97;;
6414;SDS011;3240;48.790;9.210;2023-03-13T15:18:30;2.93;;;0.90;;
6414;SDS011;3240;48.790;9.210;2023-03-13T15:20:58;1.10;;;0.90;;
6414;SDS011;3240;48.790;9.210;2023-03-13T15:23:25;0.90;;;0.80;;
6414;SDS011;3240;48.790;9.210;2023-03-13T15:25:54;2.77;;;0.90;;
6414;SDS011;3240;48.790;9.210;2023-03-13T15:28:22;2.53;;;1.20;;
6414;SDS011;3240;48.790;9.210;2023-03-13T15:30:50;2.70;;;1.10;;
6414;SDS011;3240;48.790;9.210;2023-03-13T15:33:19;7.57;;;1.10;;
6414;SDS011;3240;48.790;9.210;2023-03-13T15:35:47;2.13;;;1.03;;
6414;SDS011;3240;48.790;9.210;2023-03-13T15:38:17;6.97;;;1.20;;
6414;SDS011;3240;48.790;9.210;2023-03-13T15:40:44;1.20;;;0.80;;
6414;SDS011;3240;48.790;9.210;2023-03-13T15:43:12;3.00;;;1.00;;
6414;SDS011;3240;48.790;9.210;2023-03-13T15:45:41;1.63;;;1.00;;
6414;SDS011;3240;48.790;9.210;2023-03-13T15:48:12;4.60;;;1.03;;
6414;SDS011;3240;48.790;9.210;2023-03-13T15:50:39;2.13;;;1.10;;
6414;SDS011;3240;48.790;9.210;2023-03-13T15:53:15;3.23;;;1.60;;
6414;SDS011;3240;48.790;9.210;2023-03-13T15:55:38;2.90;;;1.10;;
6414;SDS011;3240;48.790;9.210;2023-03-13T15:58:07;1.93;;;1.17;;
6414;SDS011;3240;48.790;9.210;2023-03-13T16:00:35;7.60;;;0.87;;
6414;SDS011;3240;48.790;9.210;2023-03-13T16:03:03;5.37;;;1.20;;